sensor_id;sensor_type;location;lat;lon;timestamp;temperature;humidity
57829;DHT22;43657;52.698;6.314;2023-01-28T00:00:28;2.30;99.90
57829;DHT22;43657;52.698;6.314;2023-01-28T00:02:53;2.20;99.90
57829;DHT22;43657;52.698;6.314;2023-01-28T00:05:19;2.20;99.90
57829;DHT22;43657;52.698;6.314;2023-01-28T00:07:48;2.20;99.90
57829;DHT22;43657;52.698;6.314;2023-01-28T00:10:14;2.20;99.90
57829;DHT22;43657;52.698;6.314;2023-01-28T00:12:40;2.20;99.90
57829;DHT22;43657;52.698;6.314;2023-01-28T00:15:06;2.20;99.90
57829;DHT22;43657;52.698;6.314;2023-01-28T00:17:31;2.20;99.90
57829;DHT22;43657;52.698;6.314;2023-01-28T00:19:57;2.20;99.90
57829;DHT22;43657;52.698;6.314;2023-01-28T00:22:23;2.20;99.90
57829;DHT22;43657;52.698;6.314;2023-01-28T00:24:49;2.10;99.90
57829;DHT22;43657;52.698;6.314;2023-01-28T00:27:14;2.20;99.90
57829;DHT22;43657;52.698;6.314;2023-01-28T00:29:40;2.20;99.90
57829;DHT22;43657;52.698;6.314;2023-01-28T00:32:06;2.10;99.90
57829;DHT22;43657;52.698;6.314;2023-01-28T00:34:32;2.10;99.90
57829;DHT22;43657;52.698;6.314;2023-01-28T00:36:57;2.10;99.90
57829;DHT22;43657;52.698;6.314;2023-01-28T00:39:24;2.10;99.90
57829;DHT22;43657;52.698;6.314;2023-01-28T00:41:50;2.10;99.90
57829;DHT22;43657;52.698;6.314;2023-01-28T00:44:17;2.10;99.90
57829;DHT22;43657;52.698;6.314;2023-01-28T00:46:43;2.10;99.90
57829;DHT22;43657;52.698;6.314;2023-01-28T00:49:09;2.10;99.90
57829;DHT22;43657;52.698;6.314;2023-01-28T00:51:35;2.10;99.90
57829;DHT22;43657;52.698;6.314;2023-01-28T00:54:00;2.00;99.90
57829;DHT22;43657;52.698;6.314;2023-01-28T00:56:26;2.10;99.90
57829;DHT22;43657;52.698;6.314;2023-01-28T00:58:52;2.10;99.90
57829;DHT22;43657;52.698;6.314;2023-01-28T01:01:24;2.10;99.90
57829;DHT22;43657;52.698;6.314;2023-01-28T01:03:51;2.10;99.90
57829;DHT22;43657;52.698;6.314;2023-01-28T01:06:23;2.00;99.90
57829;DHT22;43657;52.698;6.314;2023-01-28T01:08:49;2.10;99.90
57829;DHT22;43657;52.698;6.314;2023-01-28T01:11:16;2.10;99.90
57829;DHT22;43657;52.698;6.314;2023-01-28T01:13:42;2.10;99.90
57829;DHT22;43657;52.698;6.314;2023-01-28T01:16:11;2.00;99.90
57829;DHT22;43657;52.698;6.314;2023-01-28T01:18:37;2.00;99.90
57829;DHT22;43657;52.698;6.314;2023-01-28T01:21:08;2.10;99.90
57829;DHT22;43657;52.698;6.314;2023-01-28T01:23:34;2.00;99.90
57829;DHT22;43657;52.698;6.314;2023-01-28T01:25:59;2.00;99.90
57829;DHT22;43657;52.698;6.314;2023-01-28T01:28:26;2.00;99.90
57829;DHT22;43657;52.698;6.314;2023-01-28T01:30:58;2.00;99.90
57829;DHT22;43657;52.698;6.314;2023-01-28T01:33:25;2.00;99.90
57829;DHT22;43657;52.698;6.314;2023-01-28T01:35:54;2.00;99.90
57829;DHT22;43657;52.698;6.314;2023-01-28T01:38:19;2.00;99.90
57829;DHT22;43657;52.698;6.314;2023-01-28T01:40:45;2.00;99.90
57829;DHT22;43657;52.698;6.314;2023-01-28T01:43:19;1.90;99.90
57829;DHT22;43657;52.698;6.314;2023-01-28T01:45:49;2.00;99.90
57829;DHT22;43657;52.698;6.314;2023-01-28T01:48:23;2.00;99.90
57829;DHT22;43657;52.698;6.314;2023-01-28T01:51:09;1.90;99.90
57829;DHT22;43657;52.698;6.314;2023-01-28T01:53:39;1.90;99.90
57829;DHT22;43657;52.698;6.314;2023-01-28T01:56:08;1.90;99.90
57829;DHT22;43657;52.698;6.314;2023-01-28T01:58:38;1.90;99.90
57829;DHT22;43657;52.698;6.314;2023-01-28T02:01:05;1.80;99.90
57829;DHT22;43657;52.698;6.314;2023-01-28T02:03:39;1.90;99.90
57829;DHT22;43657;52.698;6.314;2023-01-28T02:06:07;1.80;99.90
57829;DHT22;43657;52.698;6.314;2023-01-28T02:08:33;1.90;99.90
57829;DHT22;43657;52.698;6.314;2023-01-28T02:11:05;1.80;99.90
57829;DHT22;43657;52.698;6.314;2023-01-28T02:13:41;1.80;99.90
57829;DHT22;43657;52.698;6.314;2023-01-28T02:16:09;1.80;99.90
57829;DHT22;43657;52.698;6.314;2023-01-28T02:18:35;1.80;99.90
57829;DHT22;43657;52.698;6.314;2023-01-28T02:34:56;1.60;99.90
57829;DHT22;43657;52.698;6.314;2023-01-28T02:37:35;1.60;99.90
57829;DHT22;43657;52.698;6.314;2023-01-28T02:40:10;1.60;99.90
57829;DHT22;43657;52.698;6.314;2023-01-28T02:42:38;1.60;99.90
57829;DHT22;43657;52.698;6.314;2023-01-28T02:45:26;1.60;99.90
57829;DHT22;43657;52.698;6.314;2023-01-28T02:48:13;1.60;99.90
57829;DHT22;43657;52.698;6.314;2023-01-28T02:50:51;1.50;99.90
57829;DHT22;43657;52.698;6.314;2023-01-28T02:53:40;1.60;99.90
57829;DHT22;43657;52.698;6.314;2023-01-28T02:56:22;1.50;99.90
57829;DHT22;43657;52.698;6.314;2023-01-28T03:01:27;1.50;99.90
57829;DHT22;43657;52.698;6.314;2023-01-28T03:06:43;1.60;99.90
57829;DHT22;43657;52.698;6.314;2023-01-28T03:09:11;1.50;99.90
57829;DHT22;43657;52.698;6.314;2023-01-28T03:12:11;1.40;99.90
57829;DHT22;43657;52.698;6.314;2023-01-28T03:17:51;1.50;99.90
57829;DHT22;43657;52.698;6.314;2023-01-28T03:24:04;1.50;99.90
57829;DHT22;43657;52.698;6.314;2023-01-28T03:27:02;1.50;99.90
57829;DHT22;43657;52.698;6.314;2023-01-28T03:29:50;1.50;99.90
57829;DHT22;43657;52.698;6.314;2023-01-28T03:32:38;1.50;99.90
57829;DHT22;43657;52.698;6.314;2023-01-28T03:35:28;1.50;99.90
57829;DHT22;43657;52.698;6.314;2023-01-28T03:38:13;1.50;99.90
57829;DHT22;43657;52.698;6.314;2023-01-28T03:40:57;1.50;99.90
57829;DHT22;43657;52.698;6.314;2023-01-28T03:43:24;1.50;99.90
57829;DHT22;43657;52.698;6.314;2023-01-28T03:45:50;1.50;99.90
57829;DHT22;43657;52.698;6.314;2023-01-28T03:48:24;1.50;99.90
57829;DHT22;43657;52.698;6.314;2023-01-28T03:50:50;1.50;99.90
57829;DHT22;43657;52.698;6.314;2023-01-28T03:53:17;1.50;99.90
57829;DHT22;43657;52.698;6.314;2023-01-28T03:55:45;1.50;99.90
57829;DHT22;43657;52.698;6.314;2023-01-28T03:58:12;1.40;99.90
57829;DHT22;43657;52.698;6.314;2023-01-28T04:00:38;1.40;99.90
57829;DHT22;43657;52.698;6.314;2023-01-28T04:03:17;1.40;99.90
57829;DHT22;43657;52.698;6.314;2023-01-28T04:05:47;1.40;99.90
57829;DHT22;43657;52.698;6.314;2023-01-28T04:08:21;1.50;99.90
57829;DHT22;43657;52.698;6.314;2023-01-28T04:10:47;1.40;99.90
57829;DHT22;43657;52.698;6.314;2023-01-28T04:13:13;1.50;99.90
57829;DHT22;43657;52.698;6.314;2023-01-28T04:15:38;1.50;99.90
57829;DHT22;43657;52.698;6.314;2023-01-28T04:18:04;1.50;99.90
57829;DHT22;43657;52.698;6.314;2023-01-28T04:20:30;1.50;99.90
57829;DHT22;43657;52.698;6.314;2023-01-28T04:22:56;1.50;99.90
57829;DHT22;43657;52.698;6.314;2023-01-28T04:25:21;1.40;99.90
57829;DHT22;43657;52.698;6.314;2023-01-28T04:27:47;1.40;99.90
57829;DHT22;43657;52.698;6.314;2023-01-28T04:30:13;1.50;99.90
57829;DHT22;43657;52.698;6.314;2023-01-28T04:32:38;1.50;99.90
57829;DHT22;43657;52.698;6.314;2023-01-28T04:35:04;1.40;99.90
57829;DHT22;43657;52.698;6.314;2023-01-28T04:37:30;1.40;99.90
57829;DHT22;43657;52.698;6.314;2023-01-28T04:39:55;1.40;99.90
57829;DHT22;43657;52.698;6.314;2023-01-28T04:42:21;1.40;99.90
57829;DHT22;43657;52.698;6.314;2023-01-28T04:44:46;1.40;99.90
57829;DHT22;43657;52.698;6.314;2023-01-28T04:47:12;1.40;99.90
57829;DHT22;43657;52.698;6.314;2023-01-28T04:49:38;1.40;99.90
57829;DHT22;43657;52.698;6.314;2023-01-28T04:52:03;1.40;99.90
57829;DHT22;43657;52.698;6.314;2023-01-28T04:54:29;1.40;99.90
57829;DHT22;43657;52.698;6.314;2023-01-28T04:56:54;1.40;99.90
57829;DHT22;43657;52.698;6.314;2023-01-28T04:59:21;1.40;99.90
57829;DHT22;43657;52.698;6.314;2023-01-28T05:01:48;1.40;99.90
57829;DHT22;43657;52.698;6.314;2023-01-28T05:04:14;1.40;99.90
57829;DHT22;43657;52.698;6.314;2023-01-28T05:06:41;1.40;99.90
57829;DHT22;43657;52.698;6.314;2023-01-28T05:09:07;1.40;99.90
57829;DHT22;43657;52.698;6.314;2023-01-28T05:11:32;1.40;99.90
57829;DHT22;43657;52.698;6.314;2023-01-28T05:13:58;1.40;99.90
57829;DHT22;43657;52.698;6.314;2023-01-28T05:16:24;1.40;99.90
57829;DHT22;43657;52.698;6.314;2023-01-28T05:18:49;1.40;99.90
57829;DHT22;43657;52.698;6.314;2023-01-28T05:21:16;1.40;99.90
57829;DHT22;43657;52.698;6.314;2023-01-28T05:23:42;1.40;99.90
57829;DHT22;43657;52.698;6.314;2023-01-28T05:26:08;1.40;99.90
57829;DHT22;43657;52.698;6.314;2023-01-28T05:28:34;1.40;99.90
57829;DHT22;43657;52.698;6.314;2023-01-28T05:31:04;1.40;99.90
57829;DHT22;43657;52.698;6.314;2023-01-28T05:33:30;1.40;99.90
57829;DHT22;43657;52.698;6.314;2023-01-28T05:35:56;1.40;99.90
57829;DHT22;43657;52.698;6.314;2023-01-28T05:38:22;1.40;99.90
57829;DHT22;43657;52.698;6.314;2023-01-28T05:40:47;1.30;99.90
57829;DHT22;43657;52.698;6.314;2023-01-28T05:43:13;1.40;99.90
57829;DHT22;43657;52.698;6.314;2023-01-28T05:45:39;1.40;99.90
57829;DHT22;43657;52.698;6.314;2023-01-28T05:48:05;1.40;99.90
57829;DHT22;43657;52.698;6.314;2023-01-28T05:50:31;1.40;99.90
57829;DHT22;43657;52.698;6.314;2023-01-28T05:52:57;1.40;99.90
57829;DHT22;43657;52.698;6.314;2023-01-28T05:55:23;1.40;99.90
57829;DHT22;43657;52.698;6.314;2023-01-28T05:57:49;1.40;99.90
57829;DHT22;43657;52.698;6.314;2023-01-28T06:00:15;1.40;99.90
57829;DHT22;43657;52.698;6.314;2023-01-28T06:02:41;1.40;99.90
57829;DHT22;43657;52.698;6.314;2023-01-28T06:05:07;1.40;99.90
57829;DHT22;43657;52.698;6.314;2023-01-28T06:07:33;1.40;99.90
57829;DHT22;43657;52.698;6.314;2023-01-28T06:09:59;1.30;99.90
57829;DHT22;43657;52.698;6.314;2023-01-28T06:12:24;1.30;99.90
57829;DHT22;43657;52.698;6.314;2023-01-28T06:14:50;1.30;99.90
57829;DHT22;43657;52.698;6.314;2023-01-28T06:17:16;1.30;99.90
57829;DHT22;43657;52.698;6.314;2023-01-28T06:19:41;1.30;99.90
57829;DHT22;43657;52.698;6.314;2023-01-28T06:22:08;1.30;99.90
57829;DHT22;43657;52.698;6.314;2023-01-28T06:24:34;1.30;99.90
57829;DHT22;43657;52.698;6.314;2023-01-28T06:26:59;1.30;99.90
57829;DHT22;43657;52.698;6.314;2023-01-28T06:29:25;1.30;99.90
57829;DHT22;43657;52.698;6.314;2023-01-28T06:31:51;1.30;99.90
57829;DHT22;43657;52.698;6.314;2023-01-28T06:34:16;1.30;99.90
57829;DHT22;43657;52.698;6.314;2023-01-28T06:36:42;1.30;99.90
57829;DHT22;43657;52.698;6.314;2023-01-28T06:39:08;1.30;99.90
57829;DHT22;43657;52.698;6.314;2023-01-28T06:41:33;1.30;99.90
57829;DHT22;43657;52.698;6.314;2023-01-28T06:43:59;1.30;99.90
57829;DHT22;43657;52.698;6.314;2023-01-28T06:46:25;1.30;99.90
57829;DHT22;43657;52.698;6.314;2023-01-28T06:48:50;1.30;99.90
57829;DHT22;43657;52.698;6.314;2023-01-28T06:51:16;1.30;99.90
57829;DHT22;43657;52.698;6.314;2023-01-28T06:53:41;1.30;99.90
57829;DHT22;43657;52.698;6.314;2023-01-28T06:56:07;1.30;99.90
57829;DHT22;43657;52.698;6.314;2023-01-28T06:58:34;1.30;99.90
57829;DHT22;43657;52.698;6.314;2023-01-28T07:01:00;1.30;99.90
57829;DHT22;43657;52.698;6.314;2023-01-28T07:03:25;1.30;99.90
57829;DHT22;43657;52.698;6.314;2023-01-28T07:05:51;1.30;99.90
57829;DHT22;43657;52.698;6.314;2023-01-28T07:08:16;1.30;99.90
57829;DHT22;43657;52.698;6.314;2023-01-28T07:10:43;1.30;99.90
57829;DHT22;43657;52.698;6.314;2023-01-28T07:13:09;1.20;99.90
57829;DHT22;43657;52.698;6.314;2023-01-28T07:15:34;1.20;99.90
57829;DHT22;43657;52.698;6.314;2023-01-28T07:18:00;1.20;99.90
57829;DHT22;43657;52.698;6.314;2023-01-28T07:20:26;1.20;99.90
57829;DHT22;43657;52.698;6.314;2023-01-28T07:22:52;1.20;99.90
57829;DHT22;43657;52.698;6.314;2023-01-28T07:25:17;1.20;99.90
57829;DHT22;43657;52.698;6.314;2023-01-28T07:27:48;1.30;99.90
57829;DHT22;43657;52.698;6.314;2023-01-28T07:30:14;1.20;99.90
57829;DHT22;43657;52.698;6.314;2023-01-28T07:32:40;1.20;99.90
57829;DHT22;43657;52.698;6.314;2023-01-28T07:35:06;1.30;99.90
57829;DHT22;43657;52.698;6.314;2023-01-28T07:37:32;1.20;99.90
57829;DHT22;43657;52.698;6.314;2023-01-28T07:39:57;1.30;99.90
57829;DHT22;43657;52.698;6.314;2023-01-28T07:42:23;1.20;99.90
57829;DHT22;43657;52.698;6.314;2023-01-28T07:44:48;1.20;99.90
57829;DHT22;43657;52.698;6.314;2023-01-28T07:47:14;1.20;99.90
57829;DHT22;43657;52.698;6.314;2023-01-28T07:49:40;1.20;99.90
57829;DHT22;43657;52.698;6.314;2023-01-28T07:52:06;1.20;99.90
57829;DHT22;43657;52.698;6.314;2023-01-28T07:54:32;1.20;99.90
57829;DHT22;43657;52.698;6.314;2023-01-28T07:56:58;1.20;99.90
57829;DHT22;43657;52.698;6.314;2023-01-28T07:59:23;1.20;99.90
57829;DHT22;43657;52.698;6.314;2023-01-28T08:01:49;1.20;99.90
57829;DHT22;43657;52.698;6.314;2023-01-28T08:04:14;1.20;99.90
57829;DHT22;43657;52.698;6.314;2023-01-28T08:06:40;1.20;99.90
57829;DHT22;43657;52.698;6.314;2023-01-28T08:09:06;1.20;99.90
57829;DHT22;43657;52.698;6.314;2023-01-28T08:11:37;1.20;99.90
57829;DHT22;43657;52.698;6.314;2023-01-28T08:14:03;1.20;99.90
57829;DHT22;43657;52.698;6.314;2023-01-28T08:16:29;1.10;99.90
57829;DHT22;43657;52.698;6.314;2023-01-28T08:18:55;1.20;99.90
57829;DHT22;43657;52.698;6.314;2023-01-28T08:21:21;1.20;99.90
57829;DHT22;43657;52.698;6.314;2023-01-28T08:23:47;1.10;99.90
57829;DHT22;43657;52.698;6.314;2023-01-28T08:26:12;1.10;99.90
57829;DHT22;43657;52.698;6.314;2023-01-28T08:28:38;1.10;99.90
57829;DHT22;43657;52.698;6.314;2023-01-28T08:31:03;1.10;99.90
57829;DHT22;43657;52.698;6.314;2023-01-28T08:33:29;1.00;99.90
57829;DHT22;43657;52.698;6.314;2023-01-28T08:35:55;0.90;99.90
57829;DHT22;43657;52.698;6.314;2023-01-28T08:38:20;0.90;99.90
57829;DHT22;43657;52.698;6.314;2023-01-28T08:40:46;0.80;99.90
57829;DHT22;43657;52.698;6.314;2023-01-28T08:43:12;0.80;99.90
57829;DHT22;43657;52.698;6.314;2023-01-28T08:45:41;0.80;99.90
57829;DHT22;43657;52.698;6.314;2023-01-28T08:48:10;0.70;99.90
57829;DHT22;43657;52.698;6.314;2023-01-28T08:50:38;0.70;99.90
57829;DHT22;43657;52.698;6.314;2023-01-28T08:53:06;0.70;99.90
57829;DHT22;43657;52.698;6.314;2023-01-28T08:55:33;0.80;99.90
57829;DHT22;43657;52.698;6.314;2023-01-28T08:58:05;0.90;99.90
57829;DHT22;43657;52.698;6.314;2023-01-28T09:00:32;1.00;99.90
57829;DHT22;43657;52.698;6.314;2023-01-28T09:02:57;1.00;99.90
57829;DHT22;43657;52.698;6.314;2023-01-28T09:05:23;1.10;99.90
57829;DHT22;43657;52.698;6.314;2023-01-28T09:07:49;1.20;99.90
57829;DHT22;43657;52.698;6.314;2023-01-28T09:10:15;1.30;99.90
57829;DHT22;43657;52.698;6.314;2023-01-28T09:12:42;1.30;99.90
57829;DHT22;43657;52.698;6.314;2023-01-28T09:15:09;1.30;99.90
57829;DHT22;43657;52.698;6.314;2023-01-28T09:17:35;1.20;99.90
57829;DHT22;43657;52.698;6.314;2023-01-28T09:20:00;1.20;99.90
57829;DHT22;43657;52.698;6.314;2023-01-28T09:22:26;1.20;99.90
57829;DHT22;43657;52.698;6.314;2023-01-28T09:24:51;1.20;99.90
57829;DHT22;43657;52.698;6.314;2023-01-28T09:27:17;1.20;99.90
57829;DHT22;43657;52.698;6.314;2023-01-28T09:29:43;1.20;99.90
57829;DHT22;43657;52.698;6.314;2023-01-28T09:32:08;1.20;99.90
57829;DHT22;43657;52.698;6.314;2023-01-28T09:34:34;1.30;99.90
57829;DHT22;43657;52.698;6.314;2023-01-28T09:37:00;1.50;99.90
57829;DHT22;43657;52.698;6.314;2023-01-28T09:39:26;1.80;99.90
57829;DHT22;43657;52.698;6.314;2023-01-28T09:42:15;2.00;99.90
57829;DHT22;43657;52.698;6.314;2023-01-28T09:47:33;2.50;99.90
57829;DHT22;43657;52.698;6.314;2023-01-28T09:50:03;2.70;99.90
57829;DHT22;43657;52.698;6.314;2023-01-28T09:52:34;2.80;99.90
57829;DHT22;43657;52.698;6.314;2023-01-28T09:55:24;2.90;99.90
57829;DHT22;43657;52.698;6.314;2023-01-28T09:57:54;3.00;99.90
57829;DHT22;43657;52.698;6.314;2023-01-28T10:00:25;3.10;99.90
57829;DHT22;43657;52.698;6.314;2023-01-28T10:03:07;3.10;99.90
57829;DHT22;43657;52.698;6.314;2023-01-28T10:08:51;3.20;99.90
57829;DHT22;43657;52.698;6.314;2023-01-28T10:14:19;3.40;99.90
57829;DHT22;43657;52.698;6.314;2023-01-28T10:25:31;3.20;99.90
57829;DHT22;43657;52.698;6.314;2023-01-28T10:28:00;3.20;99.90
57829;DHT22;43657;52.698;6.314;2023-01-28T10:30:29;3.10;99.90
57829;DHT22;43657;52.698;6.314;2023-01-28T10:33:00;3.10;99.90
57829;DHT22;43657;52.698;6.314;2023-01-28T10:35:30;3.10;99.90
57829;DHT22;43657;52.698;6.314;2023-01-28T10:38:02;3.20;99.90
57829;DHT22;43657;52.698;6.314;2023-01-28T10:40:31;3.20;99.90
57829;DHT22;43657;52.698;6.314;2023-01-28T10:42:56;3.30;99.90
57829;DHT22;43657;52.698;6.314;2023-01-28T10:45:34;3.40;99.90
57829;DHT22;43657;52.698;6.314;2023-01-28T10:48:28;3.50;99.90
57829;DHT22;43657;52.698;6.314;2023-01-28T10:50:56;3.70;99.90
57829;DHT22;43657;52.698;6.314;2023-01-28T10:53:35;3.80;99.90
57829;DHT22;43657;52.698;6.314;2023-01-28T10:56:04;3.90;99.90
57829;DHT22;43657;52.698;6.314;2023-01-28T10:58:33;4.00;99.90
57829;DHT22;43657;52.698;6.314;2023-01-28T11:01:02;4.10;99.90
57829;DHT22;43657;52.698;6.314;2023-01-28T11:03:29;4.20;99.90
57829;DHT22;43657;52.698;6.314;2023-01-28T11:06:00;4.30;99.90
57829;DHT22;43657;52.698;6.314;2023-01-28T11:08:28;4.30;99.90
57829;DHT22;43657;52.698;6.314;2023-01-28T11:10:55;4.30;99.90
57829;DHT22;43657;52.698;6.314;2023-01-28T11:13:29;4.40;99.90
57829;DHT22;43657;52.698;6.314;2023-01-28T11:16:01;4.50;99.90
57829;DHT22;43657;52.698;6.314;2023-01-28T11:18:29;4.50;99.90
57829;DHT22;43657;52.698;6.314;2023-01-28T11:21:01;4.60;99.90
57829;DHT22;43657;52.698;6.314;2023-01-28T11:23:29;4.70;99.90
57829;DHT22;43657;52.698;6.314;2023-01-28T11:26:17;4.80;99.90
57829;DHT22;43657;52.698;6.314;2023-01-28T11:28:44;4.90;99.90
57829;DHT22;43657;52.698;6.314;2023-01-28T11:31:13;5.10;99.90
57829;DHT22;43657;52.698;6.314;2023-01-28T11:33:45;5.30;99.90
57829;DHT22;43657;52.698;6.314;2023-01-28T11:36:19;5.60;99.90
57829;DHT22;43657;52.698;6.314;2023-01-28T11:41:31;6.20;99.90
57829;DHT22;43657;52.698;6.314;2023-01-28T11:43:59;6.30;99.90
57829;DHT22;43657;52.698;6.314;2023-01-28T11:51:35;7.00;99.90
57829;DHT22;43657;52.698;6.314;2023-01-28T11:57:06;8.00;99.90
57829;DHT22;43657;52.698;6.314;2023-01-28T12:11:01;10.30;99.90
57829;DHT22;43657;52.698;6.314;2023-01-28T12:16:29;11.20;99.90
57829;DHT22;43657;52.698;6.314;2023-01-28T12:19:12;11.50;99.90
57829;DHT22;43657;52.698;6.314;2023-01-28T12:24:33;11.50;99.90
57829;DHT22;43657;52.698;6.314;2023-01-28T12:27:29;11.50;99.90
57829;DHT22;43657;52.698;6.314;2023-01-28T12:30:51;11.30;99.90
57829;DHT22;43657;52.698;6.314;2023-01-28T12:33:34;11.10;99.90
57829;DHT22;43657;52.698;6.314;2023-01-28T12:36:18;10.80;99.90
57829;DHT22;43657;52.698;6.314;2023-01-28T12:41:31;9.60;99.90
57829;DHT22;43657;52.698;6.314;2023-01-28T12:44:08;9.10;99.90
57829;DHT22;43657;52.698;6.314;2023-01-28T12:46:43;8.60;99.90
57829;DHT22;43657;52.698;6.314;2023-01-28T12:51:53;8.00;99.90
57829;DHT22;43657;52.698;6.314;2023-01-28T12:54:24;7.70;99.90
57829;DHT22;43657;52.698;6.314;2023-01-28T12:56:55;7.40;99.90
57829;DHT22;43657;52.698;6.314;2023-01-28T12:59:41;7.10;99.90
57829;DHT22;43657;52.698;6.314;2023-01-28T13:02:16;7.00;99.90
57829;DHT22;43657;52.698;6.314;2023-01-28T13:05:10;6.80;99.90
57829;DHT22;43657;52.698;6.314;2023-01-28T13:10:28;6.40;99.90
57829;DHT22;43657;52.698;6.314;2023-01-28T13:12:55;6.20;99.90
57829;DHT22;43657;52.698;6.314;2023-01-28T13:15:22;6.30;99.90
57829;DHT22;43657;52.698;6.314;2023-01-28T13:18:01;6.40;99.90
57829;DHT22;43657;52.698;6.314;2023-01-28T13:23:24;6.70;99.90
57829;DHT22;43657;52.698;6.314;2023-01-28T13:25:54;6.70;99.90
57829;DHT22;43657;52.698;6.314;2023-01-28T13:28:29;6.70;99.90
57829;DHT22;43657;52.698;6.314;2023-01-28T13:31:11;6.80;99.90
57829;DHT22;43657;52.698;6.314;2023-01-28T13:33:44;6.90;99.90
57829;DHT22;43657;52.698;6.314;2023-01-28T13:39:13;6.80;99.90
57829;DHT22;43657;52.698;6.314;2023-01-28T13:41:45;6.60;99.90
57829;DHT22;43657;52.698;6.314;2023-01-28T13:44:27;6.40;99.90
57829;DHT22;43657;52.698;6.314;2023-01-28T13:46:59;6.40;99.90
57829;DHT22;43657;52.698;6.314;2023-01-28T13:49:37;6.30;99.90
57829;DHT22;43657;52.698;6.314;2023-01-28T13:54:39;6.20;99.90
57829;DHT22;43657;52.698;6.314;2023-01-28T14:00:00;6.10;99.90
57829;DHT22;43657;52.698;6.314;2023-01-28T14:05:56;6.00;99.90
57829;DHT22;43657;52.698;6.314;2023-01-28T14:08:40;5.90;99.90
57829;DHT22;43657;52.698;6.314;2023-01-28T14:11:53;5.80;99.90
57829;DHT22;43657;52.698;6.314;2023-01-28T14:19:43;5.70;99.90
57829;DHT22;43657;52.698;6.314;2023-01-28T14:22:16;5.60;99.90
57829;DHT22;43657;52.698;6.314;2023-01-28T14:24:43;5.60;99.90
57829;DHT22;43657;52.698;6.314;2023-01-28T14:27:17;5.70;99.90
57829;DHT22;43657;52.698;6.314;2023-01-28T14:32:21;5.70;99.90
57829;DHT22;43657;52.698;6.314;2023-01-28T14:34:49;5.80;99.90
57829;DHT22;43657;52.698;6.314;2023-01-28T14:37:18;5.80;99.90
57829;DHT22;43657;52.698;6.314;2023-01-28T14:39:55;5.90;99.90
57829;DHT22;43657;52.698;6.314;2023-01-28T14:42:29;5.80;99.90
57829;DHT22;43657;52.698;6.314;2023-01-28T15:01:58;5.30;99.90
57829;DHT22;43657;52.698;6.314;2023-01-28T15:06:49;5.10;99.90
57829;DHT22;43657;52.698;6.314;2023-01-28T15:09:15;5.10;99.90
57829;DHT22;43657;52.698;6.314;2023-01-28T15:11:43;5.00;99.90
57829;DHT22;43657;52.698;6.314;2023-01-28T15:14:17;5.00;99.90
57829;DHT22;43657;52.698;6.314;2023-01-28T15:16:47;4.90;99.90
57829;DHT22;43657;52.698;6.314;2023-01-28T15:19:13;4.90;99.90
57829;DHT22;43657;52.698;6.314;2023-01-28T15:21:42;4.80;99.90
57829;DHT22;43657;52.698;6.314;2023-01-28T15:24:12;4.80;99.90
57829;DHT22;43657;52.698;6.314;2023-01-28T15:26:38;4.70;99.90
57829;DHT22;43657;52.698;6.314;2023-01-28T15:29:04;4.70;99.90
57829;DHT22;43657;52.698;6.314;2023-01-28T15:31:33;4.60;99.90
57829;DHT22;43657;52.698;6.314;2023-01-28T15:34:03;4.60;99.90
57829;DHT22;43657;52.698;6.314;2023-01-28T15:36:30;4.60;99.90
57829;DHT22;43657;52.698;6.314;2023-01-28T15:38:56;4.50;99.90
57829;DHT22;43657;52.698;6.314;2023-01-28T15:41:26;4.50;99.90
57829;DHT22;43657;52.698;6.314;2023-01-28T15:43:52;4.50;99.90
57829;DHT22;43657;52.698;6.314;2023-01-28T15:46:18;4.40;99.90
57829;DHT22;43657;52.698;6.314;2023-01-28T15:48:48;4.40;99.90
57829;DHT22;43657;52.698;6.314;2023-01-28T15:51:22;4.40;99.90
57829;DHT22;43657;52.698;6.314;2023-01-28T15:53:52;4.30;99.90
57829;DHT22;43657;52.698;6.314;2023-01-28T15:56:26;4.30;99.90
57829;DHT22;43657;52.698;6.314;2023-01-28T15:58:52;4.30;99.90
57829;DHT22;43657;52.698;6.314;2023-01-28T16:01:19;4.30;99.90
57829;DHT22;43657;52.698;6.314;2023-01-28T16:03:58;4.20;99.90
57829;DHT22;43657;52.698;6.314;2023-01-28T16:06:36;4.20;99.90
57829;DHT22;43657;52.698;6.314;2023-01-28T16:09:06;4.20;99.90
57829;DHT22;43657;52.698;6.314;2023-01-28T16:11:38;4.20;99.90
57829;DHT22;43657;52.698;6.314;2023-01-28T16:14:28;4.10;99.90
57829;DHT22;43657;52.698;6.314;2023-01-28T16:16:55;4.10;99.90
57829;DHT22;43657;52.698;6.314;2023-01-28T16:19:37;4.00;99.90
57829;DHT22;43657;52.698;6.314;2023-01-28T16:22:05;4.00;99.90
57829;DHT22;43657;52.698;6.314;2023-01-28T16:24:31;3.90;99.90
57829;DHT22;43657;52.698;6.314;2023-01-28T16:27:16;3.90;99.90
57829;DHT22;43657;52.698;6.314;2023-01-28T16:29:43;3.80;99.90
57829;DHT22;43657;52.698;6.314;2023-01-28T16:34:53;3.80;99.90
57829;DHT22;43657;52.698;6.314;2023-01-28T16:37:19;3.70;99.90
57829;DHT22;43657;52.698;6.314;2023-01-28T16:39:44;3.70;99.90
57829;DHT22;43657;52.698;6.314;2023-01-28T16:42:10;3.60;99.90
57829;DHT22;43657;52.698;6.314;2023-01-28T16:44:35;3.60;99.90
57829;DHT22;43657;52.698;6.314;2023-01-28T16:47:01;3.60;99.90
57829;DHT22;43657;52.698;6.314;2023-01-28T16:49:28;3.60;99.90
57829;DHT22;43657;52.698;6.314;2023-01-28T16:51:54;3.50;99.90
57829;DHT22;43657;52.698;6.314;2023-01-28T16:54:20;3.50;99.90
57829;DHT22;43657;52.698;6.314;2023-01-28T16:56:45;3.40;99.90
57829;DHT22;43657;52.698;6.314;2023-01-28T16:59:11;3.40;99.90
57829;DHT22;43657;52.698;6.314;2023-01-28T17:01:37;3.30;99.90
57829;DHT22;43657;52.698;6.314;2023-01-28T17:04:03;3.30;99.90
57829;DHT22;43657;52.698;6.314;2023-01-28T17:06:33;3.30;99.90
57829;DHT22;43657;52.698;6.314;2023-01-28T17:08:59;3.30;99.90
57829;DHT22;43657;52.698;6.314;2023-01-28T17:11:28;3.30;99.90
57829;DHT22;43657;52.698;6.314;2023-01-28T17:13:53;3.30;99.90
57829;DHT22;43657;52.698;6.314;2023-01-28T17:16:19;3.20;99.90
57829;DHT22;43657;52.698;6.314;2023-01-28T17:18:49;3.20;99.90
57829;DHT22;43657;52.698;6.314;2023-01-28T17:21:15;3.20;99.90
57829;DHT22;43657;52.698;6.314;2023-01-28T17:23:40;3.20;99.90
57829;DHT22;43657;52.698;6.314;2023-01-28T17:26:07;3.10;99.90
57829;DHT22;43657;52.698;6.314;2023-01-28T17:28:34;3.10;99.90
57829;DHT22;43657;52.698;6.314;2023-01-28T17:31:07;3.10;99.90
57829;DHT22;43657;52.698;6.314;2023-01-28T17:33:33;3.10;99.90
57829;DHT22;43657;52.698;6.314;2023-01-28T17:36:02;3.10;99.90
57829;DHT22;43657;52.698;6.314;2023-01-28T17:38:28;3.00;99.90
57829;DHT22;43657;52.698;6.314;2023-01-28T17:40:59;3.00;99.90
57829;DHT22;43657;52.698;6.314;2023-01-28T17:43:24;3.00;99.90
57829;DHT22;43657;52.698;6.314;2023-01-28T17:45:50;3.00;99.90
57829;DHT22;43657;52.698;6.314;2023-01-28T17:48:15;3.00;99.90
57829;DHT22;43657;52.698;6.314;2023-01-28T17:50:41;3.00;99.90
57829;DHT22;43657;52.698;6.314;2023-01-28T17:53:08;3.00;99.90
57829;DHT22;43657;52.698;6.314;2023-01-28T17:55:34;3.00;99.90
57829;DHT22;43657;52.698;6.314;2023-01-28T17:58:02;3.10;99.90
57829;DHT22;43657;52.698;6.314;2023-01-28T18:00:28;3.10;99.90
57829;DHT22;43657;52.698;6.314;2023-01-28T18:02:53;3.10;99.90